sensor_id;sensor_type;location;lat;lon;timestamp;temperature;humidity
23116;DHT22;11727;52.134;5.052;2022-09-27T00:01:35;10.50;99.90
23116;DHT22;11727;52.134;5.052;2022-09-27T00:04:00;10.60;99.90
23116;DHT22;11727;52.134;5.052;2022-09-27T00:06:31;10.50;99.90
23116;DHT22;11727;52.134;5.052;2022-09-27T00:09:02;10.60;99.90
23116;DHT22;11727;52.134;5.052;2022-09-27T00:11:38;10.60;99.90
23116;DHT22;11727;52.134;5.052;2022-09-27T00:14:05;10.60;99.90
23116;DHT22;11727;52.134;5.052;2022-09-27T00:16:35;10.60;99.90
23116;DHT22;11727;52.134;5.052;2022-09-27T00:19:15;10.60;99.90
23116;DHT22;11727;52.134;5.052;2022-09-27T00:21:41;10.50;99.90
23116;DHT22;11727;52.134;5.052;2022-09-27T00:24:14;10.50;99.90
23116;DHT22;11727;52.134;5.052;2022-09-27T00:26:43;10.50;99.90
23116;DHT22;11727;52.134;5.052;2022-09-27T00:29:09;10.50;99.90
23116;DHT22;11727;52.134;5.052;2022-09-27T00:31:36;10.50;99.90
23116;DHT22;11727;52.134;5.052;2022-09-27T00:34:04;10.50;99.90
23116;DHT22;11727;52.134;5.052;2022-09-27T00:36:30;10.50;99.90
23116;DHT22;11727;52.134;5.052;2022-09-27T00:38:57;10.50;99.90
23116;DHT22;11727;52.134;5.052;2022-09-27T00:41:28;10.50;99.90
23116;DHT22;11727;52.134;5.052;2022-09-27T00:44:00;10.50;99.90
23116;DHT22;11727;52.134;5.052;2022-09-27T00:46:35;10.50;99.90
23116;DHT22;11727;52.134;5.052;2022-09-27T00:49:17;10.50;99.90
23116;DHT22;11727;52.134;5.052;2022-09-27T00:51:47;10.40;99.90
23116;DHT22;11727;52.134;5.052;2022-09-27T00:54:16;10.50;99.90
23116;DHT22;11727;52.134;5.052;2022-09-27T00:56:43;10.50;99.90
23116;DHT22;11727;52.134;5.052;2022-09-27T00:59:29;10.40;99.90
23116;DHT22;11727;52.134;5.052;2022-09-27T01:01:58;10.50;99.90
23116;DHT22;11727;52.134;5.052;2022-09-27T01:04:27;10.40;99.90
23116;DHT22;11727;52.134;5.052;2022-09-27T01:06:54;10.40;99.90
23116;DHT22;11727;52.134;5.052;2022-09-27T01:09:20;10.30;99.90
23116;DHT22;11727;52.134;5.052;2022-09-27T01:37:30;10.10;99.90
23116;DHT22;11727;52.134;5.052;2022-09-27T01:40:09;10.10;99.90
23116;DHT22;11727;52.134;5.052;2022-09-27T01:45:18;10.10;99.90
23116;DHT22;11727;52.134;5.052;2022-09-27T01:47:50;10.10;99.90
23116;DHT22;11727;52.134;5.052;2022-09-27T01:52:54;10.10;99.90
23116;DHT22;11727;52.134;5.052;2022-09-27T01:55:24;10.10;99.90
23116;DHT22;11727;52.134;5.052;2022-09-27T01:58:00;10.00;99.90
23116;DHT22;11727;52.134;5.052;2022-09-27T02:00:27;10.00;99.90
23116;DHT22;11727;52.134;5.052;2022-09-27T02:03:08;10.00;99.90
23116;DHT22;11727;52.134;5.052;2022-09-27T02:05:45;10.00;99.90
23116;DHT22;11727;52.134;5.052;2022-09-27T02:08:25;9.90;99.90
23116;DHT22;11727;52.134;5.052;2022-09-27T02:10:55;9.90;99.90
23116;DHT22;11727;52.134;5.052;2022-09-27T02:16:07;9.90;99.90
23116;DHT22;11727;52.134;5.052;2022-09-27T02:19:08;9.90;99.90
23116;DHT22;11727;52.134;5.052;2022-09-27T02:21:57;9.90;99.90
23116;DHT22;11727;52.134;5.052;2022-09-27T02:24:32;9.90;99.90
23116;DHT22;11727;52.134;5.052;2022-09-27T02:27:12;9.90;99.90
23116;DHT22;11727;52.134;5.052;2022-09-27T02:29:47;9.90;99.90
23116;DHT22;11727;52.134;5.052;2022-09-27T02:32:15;9.80;99.90
23116;DHT22;11727;52.134;5.052;2022-09-27T02:34:42;9.80;99.90
23116;DHT22;11727;52.134;5.052;2022-09-27T02:37:08;9.80;99.90
23116;DHT22;11727;52.134;5.052;2022-09-27T02:39:34;9.80;99.90
23116;DHT22;11727;52.134;5.052;2022-09-27T02:42:00;9.80;99.90
23116;DHT22;11727;52.134;5.052;2022-09-27T02:44:27;9.80;99.90
23116;DHT22;11727;52.134;5.052;2022-09-27T02:47:26;9.80;99.90
23116;DHT22;11727;52.134;5.052;2022-09-27T02:53:05;9.70;99.90
23116;DHT22;11727;52.134;5.052;2022-09-27T02:58:30;9.70;99.90
23116;DHT22;11727;52.134;5.052;2022-09-27T03:01:11;9.70;99.90
23116;DHT22;11727;52.134;5.052;2022-09-27T03:04:09;9.70;99.90
23116;DHT22;11727;52.134;5.052;2022-09-27T03:06:38;9.70;99.90
23116;DHT22;11727;52.134;5.052;2022-09-27T03:09:18;9.70;99.90
23116;DHT22;11727;52.134;5.052;2022-09-27T03:11:44;9.60;99.90
23116;DHT22;11727;52.134;5.052;2022-09-27T03:14:10;9.60;99.90
23116;DHT22;11727;52.134;5.052;2022-09-27T03:16:35;9.60;99.90
23116;DHT22;11727;52.134;5.052;2022-09-27T03:19:01;9.50;99.90
23116;DHT22;11727;52.134;5.052;2022-09-27T03:21:26;9.50;99.90
23116;DHT22;11727;52.134;5.052;2022-09-27T03:23:53;9.50;99.90
23116;DHT22;11727;52.134;5.052;2022-09-27T03:26:19;9.50;99.90
23116;DHT22;11727;52.134;5.052;2022-09-27T03:28:44;9.50;99.90
23116;DHT22;11727;52.134;5.052;2022-09-27T03:31:10;9.50;99.90
23116;DHT22;11727;52.134;5.052;2022-09-27T03:33:35;9.50;99.90
23116;DHT22;11727;52.134;5.052;2022-09-27T03:36:01;9.50;99.90
23116;DHT22;11727;52.134;5.052;2022-09-27T03:38:28;9.40;99.90
23116;DHT22;11727;52.134;5.052;2022-09-27T03:40:53;9.40;99.90
23116;DHT22;11727;52.134;5.052;2022-09-27T03:43:19;9.40;99.90
23116;DHT22;11727;52.134;5.052;2022-09-27T03:45:44;9.40;99.90
23116;DHT22;11727;52.134;5.052;2022-09-27T03:48:10;9.40;99.90
23116;DHT22;11727;52.134;5.052;2022-09-27T03:50:36;9.40;99.90
23116;DHT22;11727;52.134;5.052;2022-09-27T03:53:01;9.40;99.90
23116;DHT22;11727;52.134;5.052;2022-09-27T03:55:27;9.40;99.90
23116;DHT22;11727;52.134;5.052;2022-09-27T03:57:52;9.40;99.90
23116;DHT22;11727;52.134;5.052;2022-09-27T04:00:18;9.40;99.90
23116;DHT22;11727;52.134;5.052;2022-09-27T04:02:44;9.40;99.90
23116;DHT22;11727;52.134;5.052;2022-09-27T04:05:10;9.40;99.90
23116;DHT22;11727;52.134;5.052;2022-09-27T04:07:35;9.40;99.90
23116;DHT22;11727;52.134;5.052;2022-09-27T04:10:02;9.40;99.90
23116;DHT22;11727;52.134;5.052;2022-09-27T04:12:28;9.30;99.90
23116;DHT22;11727;52.134;5.052;2022-09-27T04:14:54;9.30;99.90
23116;DHT22;11727;52.134;5.052;2022-09-27T04:17:20;9.30;99.90
23116;DHT22;11727;52.134;5.052;2022-09-27T04:19:45;9.30;99.90
23116;DHT22;11727;52.134;5.052;2022-09-27T04:22:11;9.20;99.90
23116;DHT22;11727;52.134;5.052;2022-09-27T04:24:38;9.30;99.90
23116;DHT22;11727;52.134;5.052;2022-09-27T04:27:03;9.20;99.90
23116;DHT22;11727;52.134;5.052;2022-09-27T04:29:29;9.20;99.90
23116;DHT22;11727;52.134;5.052;2022-09-27T04:31:56;9.20;99.90
23116;DHT22;11727;52.134;5.052;2022-09-27T04:34:21;9.20;99.90
23116;DHT22;11727;52.134;5.052;2022-09-27T04:37:07;9.30;99.90
23116;DHT22;11727;52.134;5.052;2022-09-27T04:39:33;9.20;99.90
23116;DHT22;11727;52.134;5.052;2022-09-27T04:42:01;9.20;99.90
23116;DHT22;11727;52.134;5.052;2022-09-27T04:44:27;9.20;99.90
23116;DHT22;11727;52.134;5.052;2022-09-27T04:46:52;9.20;99.90
23116;DHT22;11727;52.134;5.052;2022-09-27T04:49:18;9.20;99.90
23116;DHT22;11727;52.134;5.052;2022-09-27T04:51:44;9.20;99.90
23116;DHT22;11727;52.134;5.052;2022-09-27T04:54:09;9.20;99.90
23116;DHT22;11727;52.134;5.052;2022-09-27T04:56:35;9.20;99.90
23116;DHT22;11727;52.134;5.052;2022-09-27T04:59:00;9.20;99.90
23116;DHT22;11727;52.134;5.052;2022-09-27T05:01:26;9.10;99.90
23116;DHT22;11727;52.134;5.052;2022-09-27T05:03:51;9.10;99.90
23116;DHT22;11727;52.134;5.052;2022-09-27T05:06:17;9.10;99.90
23116;DHT22;11727;52.134;5.052;2022-09-27T05:08:43;9.10;99.90
23116;DHT22;11727;52.134;5.052;2022-09-27T05:11:09;9.10;99.90
23116;DHT22;11727;52.134;5.052;2022-09-27T05:13:35;9.10;99.90
23116;DHT22;11727;52.134;5.052;2022-09-27T05:16:02;9.10;99.90
23116;DHT22;11727;52.134;5.052;2022-09-27T05:18:28;9.10;99.90
23116;DHT22;11727;52.134;5.052;2022-09-27T05:20:54;9.10;99.90
23116;DHT22;11727;52.134;5.052;2022-09-27T05:23:21;9.10;99.90
23116;DHT22;11727;52.134;5.052;2022-09-27T05:25:46;9.10;99.90
23116;DHT22;11727;52.134;5.052;2022-09-27T05:28:12;9.10;99.90
23116;DHT22;11727;52.134;5.052;2022-09-27T05:30:38;9.10;99.90
23116;DHT22;11727;52.134;5.052;2022-09-27T05:33:03;9.10;99.90
23116;DHT22;11727;52.134;5.052;2022-09-27T05:35:29;9.10;99.90
23116;DHT22;11727;52.134;5.052;2022-09-27T05:37:58;9.20;99.90
23116;DHT22;11727;52.134;5.052;2022-09-27T05:40:25;9.20;99.90
23116;DHT22;11727;52.134;5.052;2022-09-27T05:42:51;9.20;99.90
23116;DHT22;11727;52.134;5.052;2022-09-27T05:45:18;9.20;99.90
23116;DHT22;11727;52.134;5.052;2022-09-27T05:47:52;9.30;99.90
23116;DHT22;11727;52.134;5.052;2022-09-27T05:50:17;9.30;99.90
23116;DHT22;11727;52.134;5.052;2022-09-27T05:52:43;9.30;99.90
23116;DHT22;11727;52.134;5.052;2022-09-27T05:55:08;9.40;99.90
23116;DHT22;11727;52.134;5.052;2022-09-27T05:57:34;9.40;99.90
23116;DHT22;11727;52.134;5.052;2022-09-27T06:00:00;9.40;99.90
23116;DHT22;11727;52.134;5.052;2022-09-27T06:02:26;9.40;99.90
23116;DHT22;11727;52.134;5.052;2022-09-27T06:04:52;9.40;99.90
23116;DHT22;11727;52.134;5.052;2022-09-27T06:07:19;9.40;99.90
23116;DHT22;11727;52.134;5.052;2022-09-27T06:09:44;9.50;99.90
23116;DHT22;11727;52.134;5.052;2022-09-27T06:12:10;9.50;99.90
23116;DHT22;11727;52.134;5.052;2022-09-27T06:14:36;9.50;99.90
23116;DHT22;11727;52.134;5.052;2022-09-27T06:17:03;9.50;99.90
23116;DHT22;11727;52.134;5.052;2022-09-27T06:19:28;9.50;99.90
23116;DHT22;11727;52.134;5.052;2022-09-27T06:21:54;9.60;99.90
23116;DHT22;11727;52.134;5.052;2022-09-27T06:24:20;9.60;99.90
23116;DHT22;11727;52.134;5.052;2022-09-27T06:26:45;9.50;99.90
23116;DHT22;11727;52.134;5.052;2022-09-27T06:29:11;9.60;99.90
23116;DHT22;11727;52.134;5.052;2022-09-27T06:31:36;9.60;99.90
23116;DHT22;11727;52.134;5.052;2022-09-27T06:34:02;9.60;99.90
23116;DHT22;11727;52.134;5.052;2022-09-27T06:36:28;9.60;99.90
23116;DHT22;11727;52.134;5.052;2022-09-27T06:38:53;9.70;99.90
23116;DHT22;11727;52.134;5.052;2022-09-27T06:41:19;9.70;99.90
23116;DHT22;11727;52.134;5.052;2022-09-27T06:43:47;9.70;99.90
23116;DHT22;11727;52.134;5.052;2022-09-27T06:46:13;9.70;99.90
23116;DHT22;11727;52.134;5.052;2022-09-27T06:48:39;9.80;99.90
23116;DHT22;11727;52.134;5.052;2022-09-27T06:51:05;9.80;99.90
23116;DHT22;11727;52.134;5.052;2022-09-27T06:53:30;9.80;99.90
23116;DHT22;11727;52.134;5.052;2022-09-27T06:55:57;9.80;99.90
23116;DHT22;11727;52.134;5.052;2022-09-27T06:58:24;9.80;99.90
23116;DHT22;11727;52.134;5.052;2022-09-27T07:01:09;9.90;99.90
23116;DHT22;11727;52.134;5.052;2022-09-27T07:03:35;9.90;99.90
23116;DHT22;11727;52.134;5.052;2022-09-27T07:06:05;9.90;99.90
23116;DHT22;11727;52.134;5.052;2022-09-27T07:08:31;10.00;99.90
23116;DHT22;11727;52.134;5.052;2022-09-27T07:11:04;10.10;99.90
23116;DHT22;11727;52.134;5.052;2022-09-27T07:13:30;10.20;99.90
23116;DHT22;11727;52.134;5.052;2022-09-27T07:15:57;10.30;99.90
23116;DHT22;11727;52.134;5.052;2022-09-27T07:18:23;10.40;99.90
23116;DHT22;11727;52.134;5.052;2022-09-27T07:20:48;10.40;99.90
23116;DHT22;11727;52.134;5.052;2022-09-27T07:23:15;10.40;99.90
23116;DHT22;11727;52.134;5.052;2022-09-27T07:25:41;10.40;99.90
23116;DHT22;11727;52.134;5.052;2022-09-27T07:28:15;10.40;99.90
23116;DHT22;11727;52.134;5.052;2022-09-27T07:30:41;10.50;99.90
23116;DHT22;11727;52.134;5.052;2022-09-27T07:33:07;10.50;99.90
23116;DHT22;11727;52.134;5.052;2022-09-27T07:35:34;10.50;99.90
23116;DHT22;11727;52.134;5.052;2022-09-27T07:38:05;10.50;99.90
23116;DHT22;11727;52.134;5.052;2022-09-27T07:40:34;10.50;99.90
23116;DHT22;11727;52.134;5.052;2022-09-27T07:43:01;10.50;99.90
23116;DHT22;11727;52.134;5.052;2022-09-27T07:45:27;10.50;99.90
23116;DHT22;11727;52.134;5.052;2022-09-27T07:47:52;10.50;99.90
23116;DHT22;11727;52.134;5.052;2022-09-27T07:50:19;10.50;99.90
23116;DHT22;11727;52.134;5.052;2022-09-27T07:52:47;10.50;99.90
23116;DHT22;11727;52.134;5.052;2022-09-27T07:55:14;10.40;99.90
23116;DHT22;11727;52.134;5.052;2022-09-27T07:57:40;10.40;99.90
23116;DHT22;11727;52.134;5.052;2022-09-27T08:00:08;10.40;99.90
23116;DHT22;11727;52.134;5.052;2022-09-27T08:02:34;10.30;99.90
23116;DHT22;11727;52.134;5.052;2022-09-27T08:05:00;10.30;99.90
23116;DHT22;11727;52.134;5.052;2022-09-27T08:07:27;10.30;99.90
23116;DHT22;11727;52.134;5.052;2022-09-27T08:09:52;10.30;99.90
23116;DHT22;11727;52.134;5.052;2022-09-27T08:12:18;10.20;99.90
23116;DHT22;11727;52.134;5.052;2022-09-27T08:14:46;10.20;99.90
23116;DHT22;11727;52.134;5.052;2022-09-27T08:17:15;10.10;99.90
23116;DHT22;11727;52.134;5.052;2022-09-27T08:19:41;9.90;99.90
23116;DHT22;11727;52.134;5.052;2022-09-27T08:22:09;9.80;99.90
23116;DHT22;11727;52.134;5.052;2022-09-27T08:24:37;9.80;99.90
23116;DHT22;11727;52.134;5.052;2022-09-27T08:27:02;9.70;99.90
23116;DHT22;11727;52.134;5.052;2022-09-27T08:29:29;9.70;99.90
23116;DHT22;11727;52.134;5.052;2022-09-27T08:31:55;9.60;99.90
23116;DHT22;11727;52.134;5.052;2022-09-27T08:34:22;9.60;99.90
23116;DHT22;11727;52.134;5.052;2022-09-27T08:36:47;9.60;99.90
23116;DHT22;11727;52.134;5.052;2022-09-27T08:39:13;9.60;99.90
23116;DHT22;11727;52.134;5.052;2022-09-27T08:47:07;9.50;99.90
23116;DHT22;11727;52.134;5.052;2022-09-27T08:49:40;9.50;99.90
23116;DHT22;11727;52.134;5.052;2022-09-27T08:52:10;9.40;99.90
23116;DHT22;11727;52.134;5.052;2022-09-27T08:54:37;9.40;99.90
23116;DHT22;11727;52.134;5.052;2022-09-27T08:57:08;9.40;99.90
23116;DHT22;11727;52.134;5.052;2022-09-27T09:00:05;9.30;99.90
23116;DHT22;11727;52.134;5.052;2022-09-27T09:02:31;9.30;99.90
23116;DHT22;11727;52.134;5.052;2022-09-27T09:05:13;9.30;99.90
23116;DHT22;11727;52.134;5.052;2022-09-27T09:07:53;9.30;99.90
23116;DHT22;11727;52.134;5.052;2022-09-27T09:16:59;9.30;99.90
23116;DHT22;11727;52.134;5.052;2022-09-27T09:22:01;9.40;99.90
23116;DHT22;11727;52.134;5.052;2022-09-27T09:30:38;9.50;99.90
23116;DHT22;11727;52.134;5.052;2022-09-27T09:36:10;9.60;99.90
23116;DHT22;11727;52.134;5.052;2022-09-27T09:38:50;9.50;99.90
23116;DHT22;11727;52.134;5.052;2022-09-27T09:41:51;9.60;99.90
23116;DHT22;11727;52.134;5.052;2022-09-27T09:44:42;9.60;99.90
23116;DHT22;11727;52.134;5.052;2022-09-27T09:49:53;9.60;99.90
23116;DHT22;11727;52.134;5.052;2022-09-27T09:52:23;9.60;99.90
23116;DHT22;11727;52.134;5.052;2022-09-27T09:54:57;9.60;99.90
23116;DHT22;11727;52.134;5.052;2022-09-27T09:57:35;9.50;99.90
23116;DHT22;11727;52.134;5.052;2022-09-27T10:00:15;9.60;99.90
23116;DHT22;11727;52.134;5.052;2022-09-27T10:02:43;9.60;99.90
23116;DHT22;11727;52.134;5.052;2022-09-27T10:05:13;9.60;99.90
23116;DHT22;11727;52.134;5.052;2022-09-27T10:07:39;9.70;99.90
23116;DHT22;11727;52.134;5.052;2022-09-27T10:10:06;9.70;99.90
23116;DHT22;11727;52.134;5.052;2022-09-27T10:12:32;9.80;99.90
23116;DHT22;11727;52.134;5.052;2022-09-27T10:15:02;9.90;99.90
23116;DHT22;11727;52.134;5.052;2022-09-27T10:17:36;10.00;99.90
23116;DHT22;11727;52.134;5.052;2022-09-27T10:20:04;10.00;99.90
23116;DHT22;11727;52.134;5.052;2022-09-27T10:22:41;10.00;99.90
23116;DHT22;11727;52.134;5.052;2022-09-27T10:25:09;10.10;99.90
23116;DHT22;11727;52.134;5.052;2022-09-27T10:27:50;10.10;99.90
23116;DHT22;11727;52.134;5.052;2022-09-27T10:30:29;10.00;99.90
23116;DHT22;11727;52.134;5.052;2022-09-27T10:33:13;10.00;99.90
23116;DHT22;11727;52.134;5.052;2022-09-27T10:35:45;10.00;99.90
23116;DHT22;11727;52.134;5.052;2022-09-27T10:38:26;10.00;99.90
23116;DHT22;11727;52.134;5.052;2022-09-27T10:40:54;10.00;99.90
23116;DHT22;11727;52.134;5.052;2022-09-27T10:43:36;10.00;99.90
23116;DHT22;11727;52.134;5.052;2022-09-27T10:46:34;9.90;99.90
23116;DHT22;11727;52.134;5.052;2022-09-27T10:51:44;9.90;99.90
23116;DHT22;11727;52.134;5.052;2022-09-27T10:54:28;9.90;99.90
23116;DHT22;11727;52.134;5.052;2022-09-27T10:57:00;9.90;99.90
23116;DHT22;11727;52.134;5.052;2022-09-27T10:59:31;9.90;99.90
23116;DHT22;11727;52.134;5.052;2022-09-27T11:01:58;9.90;99.90
23116;DHT22;11727;52.134;5.052;2022-09-27T11:04:33;9.90;99.90
23116;DHT22;11727;52.134;5.052;2022-09-27T11:07:25;9.90;99.90
23116;DHT22;11727;52.134;5.052;2022-09-27T11:09:54;9.90;99.90
23116;DHT22;11727;52.134;5.052;2022-09-27T11:12:20;9.80;99.90
23116;DHT22;11727;52.134;5.052;2022-09-27T11:14:56;9.80;99.90
23116;DHT22;11727;52.134;5.052;2022-09-27T11:20:52;9.60;99.90
23116;DHT22;11727;52.134;5.052;2022-09-27T11:23:43;9.60;99.90
23116;DHT22;11727;52.134;5.052;2022-09-27T11:26:20;9.60;99.90
23116;DHT22;11727;52.134;5.052;2022-09-27T11:29:09;9.60;99.90
23116;DHT22;11727;52.134;5.052;2022-09-27T11:31:56;9.60;99.90
23116;DHT22;11727;52.134;5.052;2022-09-27T11:34:58;9.60;99.90
23116;DHT22;11727;52.134;5.052;2022-09-27T11:41:00;9.70;99.90
23116;DHT22;11727;52.134;5.052;2022-09-27T11:43:42;9.60;99.90
23116;DHT22;11727;52.134;5.052;2022-09-27T11:46:30;9.60;99.90
23116;DHT22;11727;52.134;5.052;2022-09-27T11:49:12;9.60;99.90
23116;DHT22;11727;52.134;5.052;2022-09-27T11:52:09;9.60;99.90
23116;DHT22;11727;52.134;5.052;2022-09-27T11:57:35;9.50;99.90
23116;DHT22;11727;52.134;5.052;2022-09-27T12:02:52;9.40;99.90
23116;DHT22;11727;52.134;5.052;2022-09-27T12:05:35;9.30;99.90
23116;DHT22;11727;52.134;5.052;2022-09-27T12:11:38;9.30;99.90
23116;DHT22;11727;52.134;5.052;2022-09-27T12:14:21;9.30;99.90
23116;DHT22;11727;52.134;5.052;2022-09-27T12:16:51;9.20;99.90
23116;DHT22;11727;52.134;5.052;2022-09-27T12:19:22;9.20;99.90
23116;DHT22;11727;52.134;5.052;2022-09-27T12:22:08;9.20;99.90
23116;DHT22;11727;52.134;5.052;2022-09-27T12:24:36;9.20;99.90
23116;DHT22;11727;52.134;5.052;2022-09-27T12:27:08;9.20;99.90
23116;DHT22;11727;52.134;5.052;2022-09-27T12:29:40;9.20;99.90
23116;DHT22;11727;52.134;5.052;2022-09-27T12:32:25;9.20;99.90
23116;DHT22;11727;52.134;5.052;2022-09-27T12:37:48;9.30;99.90
23116;DHT22;11727;52.134;5.052;2022-09-27T12:40:25;9.30;99.90
23116;DHT22;11727;52.134;5.052;2022-09-27T12:42:54;9.40;99.90
23116;DHT22;11727;52.134;5.052;2022-09-27T12:45:39;9.40;99.90
23116;DHT22;11727;52.134;5.052;2022-09-27T12:51:08;9.50;99.90
23116;DHT22;11727;52.134;5.052;2022-09-27T12:56:23;9.50;99.90
23116;DHT22;11727;52.134;5.052;2022-09-27T13:02:21;9.70;99.90
23116;DHT22;11727;52.134;5.052;2022-09-27T13:05:13;9.80;99.90
23116;DHT22;11727;52.134;5.052;2022-09-27T13:08:17;9.80;99.90
23116;DHT22;11727;52.134;5.052;2022-09-27T13:11:18;10.00;99.90
23116;DHT22;11727;52.134;5.052;2022-09-27T13:13:41;9.90;99.90
23116;DHT22;11727;52.134;5.052;2022-09-27T13:16:08;10.00;99.90
23116;DHT22;11727;52.134;5.052;2022-09-27T13:21:06;10.20;99.90
23116;DHT22;11727;52.134;5.052;2022-09-27T13:26:43;10.60;99.90
23116;DHT22;11727;52.134;5.052;2022-09-27T13:29:28;10.70;99.90
23116;DHT22;11727;52.134;5.052;2022-09-27T13:34:42;10.90;99.90
23116;DHT22;11727;52.134;5.052;2022-09-27T13:45:47;11.00;99.90
23116;DHT22;11727;52.134;5.052;2022-09-27T13:48:21;11.00;99.90
23116;DHT22;11727;52.134;5.052;2022-09-27T13:50:54;10.90;99.90
23116;DHT22;11727;52.134;5.052;2022-09-27T13:53:35;10.90;99.90
23116;DHT22;11727;52.134;5.052;2022-09-27T13:56:03;10.90;99.90
23116;DHT22;11727;52.134;5.052;2022-09-27T13:58:53;10.90;99.90
23116;DHT22;11727;52.134;5.052;2022-09-27T14:01:29;10.90;99.90
23116;DHT22;11727;52.134;5.052;2022-09-27T14:04:32;10.80;99.90
23116;DHT22;11727;52.134;5.052;2022-09-27T14:07:02;10.80;99.90
23116;DHT22;11727;52.134;5.052;2022-09-27T14:09:33;10.70;99.90
23116;DHT22;11727;52.134;5.052;2022-09-27T14:12:38;10.70;99.90
23116;DHT22;11727;52.134;5.052;2022-09-27T14:14:57;10.70;99.90
23116;DHT22;11727;52.134;5.052;2022-09-27T14:17:23;10.60;99.90
23116;DHT22;11727;52.134;5.052;2022-09-27T14:19:50;10.60;99.90
23116;DHT22;11727;52.134;5.052;2022-09-27T14:22:20;10.60;99.90
23116;DHT22;11727;52.134;5.052;2022-09-27T14:24:47;10.60;99.90
23116;DHT22;11727;52.134;5.052;2022-09-27T14:27:21;10.60;99.90
23116;DHT22;11727;52.134;5.052;2022-09-27T14:29:53;10.70;99.90
23116;DHT22;11727;52.134;5.052;2022-09-27T14:32:23;10.80;99.90
23116;DHT22;11727;52.134;5.052;2022-09-27T14:35:07;10.80;99.90
23116;DHT22;11727;52.134;5.052;2022-09-27T14:38:00;10.90;99.90
23116;DHT22;11727;52.134;5.052;2022-09-27T14:40:27;11.00;99.90
23116;DHT22;11727;52.134;5.052;2022-09-27T14:42:54;11.00;99.90
23116;DHT22;11727;52.134;5.052;2022-09-27T14:45:22;11.10;99.90
23116;DHT22;11727;52.134;5.052;2022-09-27T14:47:50;11.20;99.90
23116;DHT22;11727;52.134;5.052;2022-09-27T14:50:26;11.20;99.90
23116;DHT22;11727;52.134;5.052;2022-09-27T14:52:57;11.30;99.90
23116;DHT22;11727;52.134;5.052;2022-09-27T14:55:29;11.20;99.90
23116;DHT22;11727;52.134;5.052;2022-09-27T14:58:00;11.30;99.90
23116;DHT22;11727;52.134;5.052;2022-09-27T15:00:34;11.30;99.90
23116;DHT22;11727;52.134;5.052;2022-09-27T15:03:04;11.30;99.90
23116;DHT22;11727;52.134;5.052;2022-09-27T15:05:31;11.30;99.90
23116;DHT22;11727;52.134;5.052;2022-09-27T15:07:58;11.30;99.90
23116;DHT22;11727;52.134;5.052;2022-09-27T15:10:28;11.40;99.90
23116;DHT22;11727;52.134;5.052;2022-09-27T15:12:56;11.30;99.90
23116;DHT22;11727;52.134;5.052;2022-09-27T15:15:35;11.30;99.90
23116;DHT22;11727;52.134;5.052;2022-09-27T15:18:02;11.30;99.90
23116;DHT22;11727;52.134;5.052;2022-09-27T15:20:33;11.30;99.90
23116;DHT22;11727;52.134;5.052;2022-09-27T15:23:03;11.30;99.90
23116;DHT22;11727;52.134;5.052;2022-09-27T15:25:36;11.30;99.90
23116;DHT22;11727;52.134;5.052;2022-09-27T15:30:53;11.30;99.90
23116;DHT22;11727;52.134;5.052;2022-09-27T15:33:25;11.30;99.90
23116;DHT22;11727;52.134;5.052;2022-09-27T15:35:54;11.30;99.90
23116;DHT22;11727;52.134;5.052;2022-09-27T15:38:37;11.30;99.90
23116;DHT22;11727;52.134;5.052;2022-09-27T15:41:18;11.30;99.90
23116;DHT22;11727;52.134;5.052;2022-09-27T15:43:46;11.30;99.90
23116;DHT22;11727;52.134;5.052;2022-09-27T15:51:43;11.20;99.90
23116;DHT22;11727;52.134;5.052;2022-09-27T15:54:09;11.20;99.90
23116;DHT22;11727;52.134;5.052;2022-09-27T15:56:35;11.10;99.90
23116;DHT22;11727;52.134;5.052;2022-09-27T15:59:01;11.00;99.90
23116;DHT22;11727;52.134;5.052;2022-09-27T16:01:27;10.90;99.90
23116;DHT22;11727;52.134;5.052;2022-09-27T16:03:53;10.80;99.90
23116;DHT22;11727;52.134;5.052;2022-09-27T16:06:20;10.80;99.90
23116;DHT22;11727;52.134;5.052;2022-09-27T16:08:48;10.70;99.90
23116;DHT22;11727;52.134;5.052;2022-09-27T16:11:15;10.60;99.90
23116;DHT22;11727;52.134;5.052;2022-09-27T16:13:41;10.50;99.90
23116;DHT22;11727;52.134;5.052;2022-09-27T16:16:13;10.50;99.90
23116;DHT22;11727;52.134;5.052;2022-09-27T16:18:39;10.40;99.90
23116;DHT22;11727;52.134;5.052;2022-09-27T16:21:05;10.40;99.90
23116;DHT22;11727;52.134;5.052;2022-09-27T16:23:30;10.40;99.90
23116;DHT22;11727;52.134;5.052;2022-09-27T16:25:56;10.40;99.90
23116;DHT22;11727;52.134;5.052;2022-09-27T16:28:21;10.40;99.90
23116;DHT22;11727;52.134;5.052;2022-09-27T16:30:47;10.40;99.90
23116;DHT22;11727;52.134;5.052;2022-09-27T16:33:13;10.40;99.90
23116;DHT22;11727;52.134;5.052;2022-09-27T16:35:38;10.40;99.90
23116;DHT22;11727;52.134;5.052;2022-09-27T16:38:08;10.40;99.90
23116;DHT22;11727;52.134;5.052;2022-09-27T16:40:35;10.40;99.90
23116;DHT22;11727;52.134;5.052;2022-09-27T16:43:01;10.50;99.90
23116;DHT22;11727;52.134;5.052;2022-09-27T16:45:29;10.50;99.90
23116;DHT22;11727;52.134;5.052;2022-09-27T16:47:58;10.50;99.90
23116;DHT22;11727;52.134;5.052;2022-09-27T16:50:23;10.50;99.90
23116;DHT22;11727;52.134;5.052;2022-09-27T16:53:08;10.60;99.90
23116;DHT22;11727;52.134;5.052;2022-09-27T16:55:35;10.60;99.90
23116;DHT22;11727;52.134;5.052;2022-09-27T16:58:01;10.60;99.90
23116;DHT22;11727;52.134;5.052;2022-09-27T17:00:28;10.60;99.90
23116;DHT22;11727;52.134;5.052;2022-09-27T17:02:55;10.60;99.90
23116;DHT22;11727;52.134;5.052;2022-09-27T17:05:21;10.50;99.90
23116;DHT22;11727;52.134;5.052;2022-09-27T17:07:51;10.50;99.90
23116;DHT22;11727;52.134;5.052;2022-09-27T17:10:19;10.50;99.90
23116;DHT22;11727;52.134;5.052;2022-09-27T17:12:45;10.50;99.90
23116;DHT22;11727;52.134;5.052;2022-09-27T17:15:14;10.40;99.90
23116;DHT22;11727;52.134;5.052;2022-09-27T17:17:40;10.40;99.90
23116;DHT22;11727;52.134;5.052;2022-09-27T17:20:05;10.30;99.90
23116;DHT22;11727;52.134;5.052;2022-09-27T17:22:31;10.30;99.90
23116;DHT22;11727;52.134;5.052;2022-09-27T17:24:57;10.30;99.90
23116;DHT22;11727;52.134;5.052;2022-09-27T17:27:24;10.20;99.90
23116;DHT22;11727;52.134;5.052;2022-09-27T17:29:51;10.20;99.90
23116;DHT22;11727;52.134;5.052;2022-09-27T17:32:17;10.10;99.90
23116;DHT22;11727;52.134;5.052;2022-09-27T17:34:49;10.10;99.90
23116;DHT22;11727;52.134;5.052;2022-09-27T17:37:15;10.20;99.90
23116;DHT22;11727;52.134;5.052;2022-09-27T17:39:41;10.10;99.90
23116;DHT22;11727;52.134;5.052;2022-09-27T17:42:07;10.10;99.90
23116;DHT22;11727;52.134;5.052;2022-09-27T17:44:32;10.20;99.90
23116;DHT22;11727;52.134;5.052;2022-09-27T17:46:58;10.10;99.90
23116;DHT22;11727;52.134;5.052;2022-09-27T17:49:42;10.10;99.90
23116;DHT22;11727;52.134;5.052;2022-09-27T17:52:27;10.10;99.90
23116;DHT22;11727;52.134;5.052;2022-09-27T17:54:54;10.10;99.90
23116;DHT22;11727;52.134;5.052;2022-09-27T17:57:22;10.10;99.90
23116;DHT22;11727;52.134;5.052;2022-09-27T17:59:47;10.10;99.90
23116;DHT22;11727;52.134;5.052;2022-09-27T18:02:13;10.00;99.90